PWSweather.com
Personal Weather Stations
Station Observations
RYAN1946
Layla Drive, Medford, OR 97501

Layla DriveMedford, OR 97501

Lat: 42.31, Lon: -122.9

Elevation: 1491

Station Type:

http://www.ryanweather.com

High Low Average
Temperature 66.0°F18.9°C 42.6°F5.9°C 57.3°F14.1°C
Dew Point 42.4°F5.8°C 35.6°F2.0°C 39.0°F3.9°C
Winds 10.9 mph 17.5 kmh 0.1 mph 0.2 kmh 5.0 mph SW8.0 kmh SW
Wind Gusts 21.0 mph33.8 kmh 1.0 mph1.6 kmh 8.0 mph12.9 kmh
Humidity 80% 33% 52%
Pressure 30.01 in1016.3 mb 29.86 in1011.2 mb -
Precipitation 0.00 in0.0 mm - -
Hour Temp Dew Point Humidity Winds Wind Gusts Pressure Precip Precip Rate Daily Precip Total
12:00 AM 47.3°F8.5°C 39.8°F4.3°C 75% 3.0 mph W4.8 kmh W 5.0 mph8.0 kmh 29.99 in1015.6 mb 0.00 in0.0 mm 0.00 in/hr0.0 mm/hr 0.00 in0.0 mm
01:30 AM 46.5°F8.1°C 39.3°F4.1°C 76% 0.5 mph NNW0.8 kmh NNW 2.0 mph3.2 kmh 29.99 in1015.6 mb 0.00 in0.0 mm 0.00 in/hr0.0 mm/hr 0.00 in0.0 mm
01:50 AM 46.2°F7.9°C 38.0°F3.3°C 73% 0.6 mph N1.0 kmh N 2.0 mph3.2 kmh 30.00 in1015.9 mb 0.00 in0.0 mm 0.00 in/hr0.0 mm/hr 0.00 in0.0 mm
02:00 AM 46.2°F7.9°C 37.7°F3.2°C 72% 1.6 mph N2.6 kmh N 4.0 mph6.4 kmh 30.00 in1015.9 mb 0.00 in0.0 mm 0.00 in/hr0.0 mm/hr 0.00 in0.0 mm
02:20 AM 45.8°F7.7°C 38.3°F3.5°C 75% 0.3 mph NW0.5 kmh NW 2.0 mph3.2 kmh 30.01 in1016.3 mb 0.00 in0.0 mm 0.00 in/hr0.0 mm/hr 0.00 in0.0 mm
04:20 AM 44.8°F7.1°C 36.4°F2.4°C 72% 0.3 mph NE0.5 kmh NE 1.0 mph1.6 kmh 30.00 in1015.9 mb 0.00 in0.0 mm 0.00 in/hr0.0 mm/hr 0.00 in0.0 mm
04:50 AM 42.9°F6.1°C 35.9°F2.2°C 76% 0.9 mph NNE1.4 kmh NNE 2.0 mph3.2 kmh 30.00 in1015.9 mb 0.00 in0.0 mm 0.00 in/hr0.0 mm/hr 0.00 in0.0 mm
05:00 AM 42.6°F5.9°C 36.2°F2.3°C 78% 1.1 mph NNE1.8 kmh NNE 1.0 mph1.6 kmh 30.00 in1015.9 mb 0.00 in0.0 mm 0.00 in/hr0.0 mm/hr 0.00 in0.0 mm
05:20 AM 42.6°F5.9°C 36.6°F2.6°C 79% 2.3 mph WSW3.7 kmh WSW 3.0 mph4.8 kmh 30.01 in1016.3 mb 0.00 in0.0 mm 0.00 in/hr0.0 mm/hr 0.00 in0.0 mm
05:30 AM 42.8°F6.0°C 37.1°F2.8°C 80% 0.5 mph WSW0.8 kmh WSW 2.0 mph3.2 kmh 30.01 in1016.3 mb 0.00 in0.0 mm 0.00 in/hr0.0 mm/hr 0.00 in0.0 mm
05:40 AM 43.2°F6.2°C 37.4°F3.0°C 80% 0.1 mph WNW0.2 kmh WNW 1.0 mph1.6 kmh 30.01 in1016.3 mb 0.00 in0.0 mm 0.00 in/hr0.0 mm/hr 0.00 in0.0 mm
07:50 AM 48.5°F9.2°C 36.9°F2.7°C 64% 1.2 mph E1.9 kmh E 2.0 mph3.2 kmh 29.99 in1015.6 mb 0.00 in0.0 mm 0.00 in/hr0.0 mm/hr 0.00 in0.0 mm
08:10 AM 49.7°F9.8°C 36.8°F2.7°C 61% 0.4 mph N0.6 kmh N 1.0 mph1.6 kmh 29.99 in1015.6 mb 0.00 in0.0 mm 0.00 in/hr0.0 mm/hr 0.00 in0.0 mm
08:20 AM 50.2°F10.1°C 36.8°F2.7°C 60% 1.6 mph NE2.6 kmh NE 3.0 mph4.8 kmh 29.99 in1015.6 mb 0.00 in0.0 mm 0.00 in/hr0.0 mm/hr 0.00 in0.0 mm
09:50 AM 55.3°F12.9°C 38.9°F3.8°C 54% 3.7 mph W6.0 kmh W 6.0 mph9.7 kmh 29.96 in1014.6 mb 0.00 in0.0 mm 0.00 in/hr0.0 mm/hr 0.00 in0.0 mm
10:00 AM 55.3°F12.9°C 38.9°F3.8°C 54% 4.6 mph WNW7.4 kmh WNW 6.0 mph9.7 kmh 29.96 in1014.6 mb 0.00 in0.0 mm 0.00 in/hr0.0 mm/hr 0.00 in0.0 mm
10:10 AM 56.7°F13.7°C 37.2°F2.9°C 48% 4.0 mph NE6.4 kmh NE 5.0 mph8.0 kmh 29.96 in1014.6 mb 0.00 in0.0 mm 0.00 in/hr0.0 mm/hr 0.00 in0.0 mm
10:20 AM 56.8°F13.8°C 38.8°F3.8°C 51% 3.6 mph N5.8 kmh N 5.0 mph8.0 kmh 29.95 in1014.2 mb 0.00 in0.0 mm 0.00 in/hr0.0 mm/hr 0.00 in0.0 mm
10:30 AM 58.0°F14.4°C 40.4°F4.7°C 52% 6.7 mph N10.8 kmh N 12.0 mph19.3 kmh 29.95 in1014.2 mb 0.00 in0.0 mm 0.00 in/hr0.0 mm/hr 0.00 in0.0 mm
10:40 AM 58.1°F14.5°C 40.1°F4.5°C 51% 5.2 mph NNW8.4 kmh NNW 11.0 mph17.7 kmh 29.95 in1014.2 mb 0.00 in0.0 mm 0.00 in/hr0.0 mm/hr 0.00 in0.0 mm
10:50 AM 58.1°F14.5°C 41.1°F5.1°C 53% 4.3 mph NNW6.9 kmh NNW 6.0 mph9.7 kmh 29.95 in1014.2 mb 0.00 in0.0 mm 0.00 in/hr0.0 mm/hr 0.00 in0.0 mm
11:00 AM 57.8°F14.3°C 40.3°F4.6°C 52% 2.1 mph 3.4 kmh 3.0 mph4.8 kmh 29.94 in1013.9 mb 0.00 in0.0 mm 0.00 in/hr0.0 mm/hr 0.00 in0.0 mm
11:10 AM 58.0°F14.4°C 41.0°F5.0°C 53% 4.5 mph W7.2 kmh W 7.0 mph11.3 kmh 29.94 in1013.9 mb 0.00 in0.0 mm 0.00 in/hr0.0 mm/hr 0.00 in0.0 mm
11:20 AM 58.0°F14.4°C 40.5°F4.7°C 52% 1.6 mph NNW2.6 kmh NNW 9.0 mph14.5 kmh 29.94 in1013.9 mb 0.00 in0.0 mm 0.00 in/hr0.0 mm/hr 0.00 in0.0 mm
11:30 AM 60.7°F15.9°C 42.4°F5.8°C 51% 3.4 mph NE5.5 kmh NE 6.0 mph9.7 kmh 29.93 in1013.5 mb 0.00 in0.0 mm 0.00 in/hr0.0 mm/hr 0.00 in0.0 mm
11:40 AM 59.5°F15.3°C 39.3°F4.1°C 47% 4.2 mph N6.8 kmh N 4.0 mph6.4 kmh 29.92 in1013.2 mb 0.00 in0.0 mm 0.00 in/hr0.0 mm/hr 0.00 in0.0 mm
11:50 AM 61.6°F16.4°C 42.2°F5.7°C 49% 8.4 mph NW13.5 kmh NW 13.0 mph20.9 kmh 29.92 in1013.2 mb 0.00 in0.0 mm 0.00 in/hr0.0 mm/hr 0.00 in0.0 mm
12:00 PM 59.8°F15.4°C 39.0°F3.9°C 46% 2.5 mph N4.0 kmh N 5.0 mph8.0 kmh 29.91 in1012.9 mb 0.00 in0.0 mm 0.00 in/hr0.0 mm/hr 0.00 in0.0 mm
12:10 PM 61.9°F16.6°C 41.4°F5.2°C 47% 3.6 mph NE5.8 kmh NE 5.0 mph8.0 kmh 29.90 in1012.5 mb 0.00 in0.0 mm 0.00 in/hr0.0 mm/hr 0.00 in0.0 mm
12:20 PM 61.4°F16.3°C 40.4°F4.7°C 46% 4.4 mph NW7.1 kmh NW 9.0 mph14.5 kmh 29.90 in1012.5 mb 0.00 in0.0 mm 0.00 in/hr0.0 mm/hr 0.00 in0.0 mm
12:30 PM 62.7°F17.1°C 39.9°F4.4°C 43% 3.2 mph NNW5.1 kmh NNW 5.0 mph8.0 kmh 29.89 in1012.2 mb 0.00 in0.0 mm 0.00 in/hr0.0 mm/hr 0.00 in0.0 mm
12:40 PM 63.4°F17.4°C 39.9°F4.4°C 42% 7.0 mph N11.3 kmh N 11.0 mph17.7 kmh 29.89 in1012.2 mb 0.00 in0.0 mm 0.00 in/hr0.0 mm/hr 0.00 in0.0 mm
12:50 PM 63.4°F17.4°C 42.3°F5.7°C 46% 6.1 mph NW9.8 kmh NW 10.0 mph16.1 kmh 29.88 in1011.9 mb 0.00 in0.0 mm 0.00 in/hr0.0 mm/hr 0.00 in0.0 mm
01:00 PM 63.7°F17.6°C 39.6°F4.2°C 41% 8.3 mph NNW13.4 kmh NNW 14.0 mph22.5 kmh 29.88 in1011.9 mb 0.00 in0.0 mm 0.00 in/hr0.0 mm/hr 0.00 in0.0 mm
01:10 PM 64.8°F18.2°C 38.6°F3.7°C 38% 5.4 mph N8.7 kmh N 10.0 mph16.1 kmh 29.88 in1011.9 mb 0.00 in0.0 mm 0.00 in/hr0.0 mm/hr 0.00 in0.0 mm
01:20 PM 65.7°F18.7°C 42.0°F5.6°C 42% 4.9 mph N7.9 kmh N 7.0 mph11.3 kmh 29.88 in1011.9 mb 0.00 in0.0 mm 0.00 in/hr0.0 mm/hr 0.00 in0.0 mm
01:30 PM 65.5°F18.6°C 38.5°F3.6°C 37% 8.7 mph NNE14.0 kmh NNE 15.0 mph24.1 kmh 29.87 in1011.5 mb 0.00 in0.0 mm 0.00 in/hr0.0 mm/hr 0.00 in0.0 mm
01:40 PM 65.4°F18.6°C 38.4°F3.6°C 37% 10.4 mph 16.7 kmh 14.0 mph22.5 kmh 29.87 in1011.5 mb 0.00 in0.0 mm 0.00 in/hr0.0 mm/hr 0.00 in0.0 mm
01:50 PM 65.3°F18.5°C 39.7°F4.3°C 39% 8.4 mph NNW13.5 kmh NNW 12.0 mph19.3 kmh 29.87 in1011.5 mb 0.00 in0.0 mm 0.00 in/hr0.0 mm/hr 0.00 in0.0 mm
02:00 PM 65.3°F18.5°C 38.3°F3.5°C 37% 7.3 mph N11.7 kmh N 11.0 mph17.7 kmh 29.87 in1011.5 mb 0.00 in0.0 mm 0.00 in/hr0.0 mm/hr 0.00 in0.0 mm
02:10 PM 65.5°F18.6°C 35.6°F2.0°C 33% 7.8 mph NE12.6 kmh NE 13.0 mph20.9 kmh 29.87 in1011.5 mb 0.00 in0.0 mm 0.00 in/hr0.0 mm/hr 0.00 in0.0 mm
02:20 PM 65.4°F18.6°C 39.1°F3.9°C 38% 7.9 mph WSW12.7 kmh WSW 15.0 mph24.1 kmh 29.87 in1011.5 mb 0.00 in0.0 mm 0.00 in/hr0.0 mm/hr 0.00 in0.0 mm
02:30 PM 64.9°F18.3°C 39.3°F4.1°C 39% 7.3 mph NNW11.7 kmh NNW 10.0 mph16.1 kmh 29.86 in1011.2 mb 0.00 in0.0 mm 0.00 in/hr0.0 mm/hr 0.00 in0.0 mm
02:40 PM 66.0°F18.9°C 38.9°F3.8°C 37% 10.9 mph NNW17.5 kmh NNW 21.0 mph33.8 kmh 29.86 in1011.2 mb 0.00 in0.0 mm 0.00 in/hr0.0 mm/hr 0.00 in0.0 mm
02:50 PM 64.0°F17.8°C 37.8°F3.2°C 38% 10.0 mph N16.1 kmh N 13.0 mph20.9 kmh 29.86 in1011.2 mb 0.00 in0.0 mm 0.00 in/hr0.0 mm/hr 0.00 in0.0 mm
03:00 PM 65.0°F18.3°C 38.1°F3.4°C 37% 7.7 mph NNW12.4 kmh NNW 10.0 mph16.1 kmh 29.86 in1011.2 mb 0.00 in0.0 mm 0.00 in/hr0.0 mm/hr 0.00 in0.0 mm
03:10 PM 65.3°F18.5°C 39.7°F4.3°C 39% 10.4 mph WSW16.7 kmh WSW 15.0 mph24.1 kmh 29.87 in1011.5 mb 0.00 in0.0 mm 0.00 in/hr0.0 mm/hr 0.00 in0.0 mm
03:20 PM 64.5°F18.1°C 39.6°F4.2°C 40% 8.2 mph NNW13.2 kmh NNW 12.0 mph19.3 kmh 29.87 in1011.5 mb 0.00 in0.0 mm 0.00 in/hr0.0 mm/hr 0.00 in0.0 mm
03:30 PM 64.3°F17.9°C 38.8°F3.8°C 39% 9.2 mph NW14.8 kmh NW 15.0 mph24.1 kmh 29.87 in1011.5 mb 0.00 in0.0 mm 0.00 in/hr0.0 mm/hr 0.00 in0.0 mm
03:40 PM 63.9°F17.7°C 39.1°F3.9°C 40% 7.3 mph WNW11.7 kmh WNW 14.0 mph22.5 kmh 29.87 in1011.5 mb 0.00 in0.0 mm 0.00 in/hr0.0 mm/hr 0.00 in0.0 mm
03:50 PM 63.7°F17.6°C 38.3°F3.5°C 39% 8.5 mph N13.7 kmh N 15.0 mph24.1 kmh 29.86 in1011.2 mb 0.00 in0.0 mm 0.00 in/hr0.0 mm/hr 0.00 in0.0 mm
04:00 PM 62.3°F16.8°C 37.7°F3.2°C 40% 13.3 mph WSW21.4 kmh WSW 17.0 mph27.4 kmh 29.87 in1011.5 mb 0.00 in0.0 mm 0.00 in/hr0.0 mm/hr 0.00 in0.0 mm
04:10 PM 62.6°F17.0°C 37.9°F3.3°C 40% 10.0 mph NNW16.1 kmh NNW 15.0 mph24.1 kmh 29.88 in1011.9 mb 0.00 in0.0 mm 0.00 in/hr0.0 mm/hr 0.00 in0.0 mm
04:20 PM 63.1°F17.3°C 38.4°F3.6°C 40% 10.1 mph NW16.3 kmh NW 14.0 mph22.5 kmh 29.88 in1011.9 mb 0.00 in0.0 mm 0.00 in/hr0.0 mm/hr 0.00 in0.0 mm
04:30 PM 62.7°F17.1°C 38.6°F3.7°C 41% 6.9 mph NNW11.1 kmh NNW 11.0 mph17.7 kmh 29.88 in1011.9 mb 0.00 in0.0 mm 0.00 in/hr0.0 mm/hr 0.00 in0.0 mm
04:40 PM 61.0°F16.1°C 38.3°F3.5°C 43% 5.2 mph NW8.4 kmh NW 7.0 mph11.3 kmh 29.88 in1011.9 mb 0.00 in0.0 mm 0.00 in/hr0.0 mm/hr 0.00 in0.0 mm
04:50 PM 61.2°F16.2°C 37.9°F3.3°C 42% 10.7 mph W17.2 kmh W 14.0 mph22.5 kmh 29.88 in1011.9 mb 0.00 in0.0 mm 0.00 in/hr0.0 mm/hr 0.00 in0.0 mm
05:00 PM 60.0°F15.6°C 38.0°F3.3°C 44% 9.4 mph WNW15.1 kmh WNW 13.0 mph20.9 kmh 29.88 in1011.9 mb 0.00 in0.0 mm 0.00 in/hr0.0 mm/hr 0.00 in0.0 mm
05:10 PM 60.5°F15.8°C 36.6°F2.6°C 41% 9.6 mph NW15.4 kmh NW 17.0 mph27.4 kmh 29.88 in1011.9 mb 0.00 in0.0 mm 0.00 in/hr0.0 mm/hr 0.00 in0.0 mm
05:20 PM 59.3°F15.2°C 36.7°F2.6°C 43% 7.1 mph WNW11.4 kmh WNW 11.0 mph17.7 kmh 29.88 in1011.9 mb 0.00 in0.0 mm 0.00 in/hr0.0 mm/hr 0.00 in0.0 mm
05:30 PM 58.9°F14.9°C 37.6°F3.1°C 45% 4.9 mph NW7.9 kmh NW 6.0 mph9.7 kmh 29.88 in1011.9 mb 0.00 in0.0 mm 0.00 in/hr0.0 mm/hr 0.00 in0.0 mm
05:40 PM 58.6°F14.8°C 37.3°F2.9°C 45% 6.7 mph NNW10.8 kmh NNW 11.0 mph17.7 kmh 29.88 in1011.9 mb 0.00 in0.0 mm 0.00 in/hr0.0 mm/hr 0.00 in0.0 mm
05:50 PM 58.4°F14.7°C 37.7°F3.2°C 46% 7.3 mph N11.7 kmh N 12.0 mph19.3 kmh 29.89 in1012.2 mb 0.00 in0.0 mm 0.00 in/hr0.0 mm/hr 0.00 in0.0 mm
06:00 PM 58.1°F14.5°C 37.4°F3.0°C 46% 6.7 mph NW10.8 kmh NW 12.0 mph19.3 kmh 29.89 in1012.2 mb 0.00 in0.0 mm 0.00 in/hr0.0 mm/hr 0.00 in0.0 mm
06:10 PM 57.5°F14.2°C 37.4°F3.0°C 47% 4.6 mph NW7.4 kmh NW 9.0 mph14.5 kmh 29.88 in1011.9 mb 0.00 in0.0 mm 0.00 in/hr0.0 mm/hr 0.00 in0.0 mm
06:20 PM 56.7°F13.7°C 37.2°F2.9°C 48% 8.1 mph WNW13.0 kmh WNW 12.0 mph19.3 kmh 29.89 in1012.2 mb 0.00 in0.0 mm 0.00 in/hr0.0 mm/hr 0.00 in0.0 mm
06:30 PM 55.9°F13.3°C 37.5°F3.1°C 50% 6.7 mph NW10.8 kmh NW 12.0 mph19.3 kmh 29.89 in1012.2 mb 0.00 in0.0 mm 0.00 in/hr0.0 mm/hr 0.00 in0.0 mm
06:40 PM 55.0°F12.8°C 37.2°F2.9°C 51% 6.1 mph WNW9.8 kmh WNW 10.0 mph16.1 kmh 29.90 in1012.5 mb 0.00 in0.0 mm 0.00 in/hr0.0 mm/hr 0.00 in0.0 mm
06:50 PM 54.2°F12.3°C 37.4°F3.0°C 53% 3.7 mph W6.0 kmh W 7.0 mph11.3 kmh 29.90 in1012.5 mb 0.00 in0.0 mm 0.00 in/hr0.0 mm/hr 0.00 in0.0 mm
07:00 PM 53.5°F11.9°C 37.7°F3.2°C 55% 2.1 mph NNW3.4 kmh NNW 4.0 mph6.4 kmh 29.90 in1012.5 mb 0.00 in0.0 mm 0.00 in/hr0.0 mm/hr 0.00 in0.0 mm
07:10 PM 52.8°F11.6°C 38.4°F3.6°C 58% 5.9 mph NNW9.5 kmh NNW 10.0 mph16.1 kmh 29.90 in1012.5 mb 0.00 in0.0 mm 0.00 in/hr0.0 mm/hr 0.00 in0.0 mm
07:20 PM 52.5°F11.4°C 38.1°F3.4°C 58% 6.1 mph NW9.8 kmh NW 10.0 mph16.1 kmh 29.91 in1012.9 mb 0.00 in0.0 mm 0.00 in/hr0.0 mm/hr 0.00 in0.0 mm
07:30 PM 52.1°F11.2°C 38.6°F3.7°C 60% 4.9 mph NW7.9 kmh NW 6.0 mph9.7 kmh 29.91 in1012.9 mb 0.00 in0.0 mm 0.00 in/hr0.0 mm/hr 0.00 in0.0 mm
07:40 PM 51.4°F10.8°C 38.4°F3.6°C 61% 5.1 mph N8.2 kmh N 10.0 mph16.1 kmh 29.92 in1013.2 mb 0.00 in0.0 mm 0.00 in/hr0.0 mm/hr 0.00 in0.0 mm
07:50 PM 50.9°F10.5°C 37.5°F3.1°C 60% 7.5 mph N12.1 kmh N 11.0 mph17.7 kmh 29.93 in1013.5 mb 0.00 in0.0 mm 0.00 in/hr0.0 mm/hr 0.00 in0.0 mm
08:00 PM 50.5°F10.3°C 37.1°F2.8°C 60% 8.2 mph N13.2 kmh N 13.0 mph20.9 kmh 29.93 in1013.5 mb 0.00 in0.0 mm 0.00 in/hr0.0 mm/hr 0.00 in0.0 mm
08:10 PM 50.4°F10.2°C 37.0°F2.8°C 60% 8.4 mph N13.5 kmh N 11.0 mph17.7 kmh 29.93 in1013.5 mb 0.00 in0.0 mm 0.00 in/hr0.0 mm/hr 0.00 in0.0 mm
08:20 PM 50.1°F10.1°C 38.0°F3.3°C 63% 6.5 mph 10.5 kmh 8.0 mph12.9 kmh 29.94 in1013.9 mb 0.00 in0.0 mm 0.00 in/hr0.0 mm/hr 0.00 in0.0 mm
08:30 PM 49.6°F9.8°C 38.3°F3.5°C 65% 5.8 mph N9.3 kmh N 13.0 mph20.9 kmh 29.95 in1014.2 mb 0.00 in0.0 mm 0.00 in/hr0.0 mm/hr 0.00 in0.0 mm
08:40 PM 49.5°F9.7°C 38.2°F3.4°C 65% 6.4 mph N10.3 kmh N 10.0 mph16.1 kmh 29.95 in1014.2 mb 0.00 in0.0 mm 0.00 in/hr0.0 mm/hr 0.00 in0.0 mm
08:50 PM 49.4°F9.7°C 38.1°F3.4°C 65% 6.0 mph N9.7 kmh N 10.0 mph16.1 kmh 29.96 in1014.6 mb 0.00 in0.0 mm 0.00 in/hr0.0 mm/hr 0.00 in0.0 mm
09:00 PM 48.9°F9.4°C 38.0°F3.3°C 66% 6.6 mph N10.6 kmh N 10.0 mph16.1 kmh 29.96 in1014.6 mb 0.00 in0.0 mm 0.00 in/hr0.0 mm/hr 0.00 in0.0 mm
09:10 PM 48.8°F9.3°C 37.9°F3.3°C 66% 5.0 mph N8.0 kmh N 6.0 mph9.7 kmh 29.96 in1014.6 mb 0.00 in0.0 mm 0.00 in/hr0.0 mm/hr 0.00 in0.0 mm
09:20 PM 48.6°F9.2°C 37.7°F3.2°C 66% 5.9 mph N9.5 kmh N 10.0 mph16.1 kmh 29.96 in1014.6 mb 0.00 in0.0 mm 0.00 in/hr0.0 mm/hr 0.00 in0.0 mm
09:30 PM 48.5°F9.2°C 37.7°F3.2°C 66% 4.0 mph N6.4 kmh N 6.0 mph9.7 kmh 29.97 in1014.9 mb 0.00 in0.0 mm 0.00 in/hr0.0 mm/hr 0.00 in0.0 mm
09:40 PM 48.2°F9.0°C 37.4°F3.0°C 66% 3.0 mph N4.8 kmh N 6.0 mph9.7 kmh 29.97 in1014.9 mb 0.00 in0.0 mm 0.00 in/hr0.0 mm/hr 0.00 in0.0 mm
09:50 PM 48.0°F8.9°C 37.6°F3.1°C 67% 3.0 mph N4.8 kmh N 6.0 mph9.7 kmh 29.96 in1014.6 mb 0.00 in0.0 mm 0.00 in/hr0.0 mm/hr 0.00 in0.0 mm
10:00 PM 47.7°F8.7°C 36.9°F2.7°C 66% 3.8 mph 6.1 kmh 4.0 mph6.4 kmh 29.97 in1014.9 mb 0.00 in0.0 mm 0.00 in/hr0.0 mm/hr 0.00 in0.0 mm
10:10 PM 47.6°F8.7°C 37.6°F3.1°C 68% 3.5 mph N5.6 kmh N 4.0 mph6.4 kmh 29.97 in1014.9 mb 0.00 in0.0 mm 0.00 in/hr0.0 mm/hr 0.00 in0.0 mm
10:20 PM 47.4°F8.6°C 37.4°F3.0°C 68% 1.9 mph NNW3.1 kmh NNW 3.0 mph4.8 kmh 29.97 in1014.9 mb 0.00 in0.0 mm 0.00 in/hr0.0 mm/hr 0.00 in0.0 mm
10:30 PM 47.4°F8.6°C 38.1°F3.4°C 70% 2.1 mph NNW3.4 kmh NNW 5.0 mph8.0 kmh 29.97 in1014.9 mb 0.00 in0.0 mm 0.00 in/hr0.0 mm/hr 0.00 in0.0 mm
10:40 PM 47.3°F8.5°C 37.6°F3.1°C 69% 2.3 mph NE3.7 kmh NE 3.0 mph4.8 kmh 29.97 in1014.9 mb 0.00 in0.0 mm 0.00 in/hr0.0 mm/hr 0.00 in0.0 mm
10:50 PM 47.1°F8.4°C 37.1°F2.8°C 68% 0.6 mph N1.0 kmh N 3.0 mph4.8 kmh 29.97 in1014.9 mb 0.00 in0.0 mm 0.00 in/hr0.0 mm/hr 0.00 in0.0 mm
11:00 PM 46.8°F8.2°C 36.8°F2.7°C 68% 1.3 mph N2.1 kmh N 3.0 mph4.8 kmh 29.98 in1015.2 mb 0.00 in0.0 mm 0.00 in/hr0.0 mm/hr 0.00 in0.0 mm
11:10 PM 46.9°F8.3°C 36.9°F2.7°C 68% 2.4 mph NE3.9 kmh NE 4.0 mph6.4 kmh 29.97 in1014.9 mb 0.00 in0.0 mm 0.00 in/hr0.0 mm/hr 0.00 in0.0 mm
11:20 PM 46.8°F8.2°C 36.4°F2.4°C 67% 3.0 mph NE4.8 kmh NE 4.0 mph6.4 kmh 29.97 in1014.9 mb 0.00 in0.0 mm 0.00 in/hr0.0 mm/hr 0.00 in0.0 mm
11:30 PM 46.8°F8.2°C 36.8°F2.7°C 68% 0.4 mph NE0.6 kmh NE 1.0 mph1.6 kmh 29.97 in1014.9 mb 0.00 in0.0 mm 0.00 in/hr0.0 mm/hr 0.00 in0.0 mm
11:40 PM 46.7°F8.2°C 36.3°F2.4°C 67% 2.3 mph N3.7 kmh N 3.0 mph4.8 kmh 29.97 in1014.9 mb 0.00 in0.0 mm 0.00 in/hr0.0 mm/hr 0.00 in0.0 mm
11:50 PM 46.5°F8.1°C 36.1°F2.3°C 67% 2.6 mph 4.2 kmh 3.0 mph4.8 kmh 29.97 in1014.9 mb 0.00 in0.0 mm 0.00 in/hr0.0 mm/hr 0.00 in0.0 mm